createdAt,value
2023-05-07T00:01:09.940Z,71.12
2023-05-07T00:03:39.169Z,71.33
2023-05-07T00:06:07.419Z,71.00
2023-05-07T00:08:36.174Z,70.98
2023-05-07T00:11:04.521Z,71.31
2023-05-07T00:13:36.430Z,71.46
2023-05-07T00:16:05.022Z,71.48
2023-05-07T00:18:34.686Z,71.23
2023-05-07T00:21:02.780Z,71.33
2023-05-07T00:23:30.778Z,71.43
2023-05-07T00:25:59.224Z,71.60
2023-05-07T00:28:27.383Z,71.39
2023-05-07T00:30:55.766Z,71.37
2023-05-07T00:33:24.511Z,71.64
2023-05-07T00:35:55.128Z,71.63
2023-05-07T00:38:23.022Z,71.81
2023-05-07T00:40:51.612Z,71.46
2023-05-07T00:43:20.243Z,71.77
2023-05-07T00:45:48.235Z,71.82
2023-05-07T00:48:16.667Z,71.72
2023-05-07T00:50:45.266Z,71.50
2023-05-07T00:53:14.974Z,71.33
2023-05-07T00:55:47.462Z,71.62
2023-05-07T00:58:15.560Z,72.14
2023-05-07T01:00:43.755Z,71.81
2023-05-07T01:03:11.999Z,72.04
2023-05-07T01:05:40.782Z,72.13
2023-05-07T01:08:09.377Z,71.64
2023-05-07T01:10:39.193Z,72.13
2023-05-07T01:13:08.001Z,72.14
2023-05-07T01:15:36.069Z,72.27
2023-05-07T01:18:04.828Z,72.38
2023-05-07T01:20:32.896Z,72.40
2023-05-07T01:23:03.334Z,72.46
2023-05-07T01:25:31.788Z,72.68
2023-05-07T01:28:01.101Z,72.46
2023-05-07T01:30:30.207Z,71.83
2023-05-07T01:33:05.126Z,72.16
2023-05-07T01:35:37.567Z,72.21
2023-05-07T01:38:07.929Z,72.19
2023-05-07T01:40:36.787Z,72.38
2023-05-07T01:43:05.213Z,72.97
2023-05-07T01:45:34.737Z,73.00
2023-05-07T01:48:04.320Z,73.60
2023-05-07T01:50:33.913Z,73.71
2023-05-07T01:53:03.577Z,73.89
2023-05-07T01:55:32.978Z,74.41
2023-05-07T01:58:01.323Z,73.90
2023-05-07T02:00:29.945Z,74.22
2023-05-07T02:02:58.084Z,74.14
2023-05-07T02:05:26.333Z,74.25
2023-05-07T02:07:54.329Z,74.61
2023-05-07T02:10:22.228Z,74.27
2023-05-07T02:12:51.720Z,74.24
2023-05-07T02:15:20.527Z,73.86
2023-05-07T02:18:02.274Z,74.43
2023-05-07T02:20:30.416Z,74.30
2023-05-07T02:22:58.785Z,74.23
2023-05-07T02:25:26.868Z,73.80
2023-05-07T02:27:56.601Z,73.76
2023-05-07T02:30:26.030Z,74.08
2023-05-07T02:32:54.355Z,73.86
2023-05-07T02:35:22.594Z,74.11
2023-05-07T02:37:50.608Z,74.09
2023-05-07T02:40:19.165Z,74.47
2023-05-07T02:42:47.078Z,74.84
2023-05-07T02:45:16.881Z,74.96
2023-05-07T02:47:45.214Z,74.94
2023-05-07T02:50:13.683Z,75.40
2023-05-07T02:52:42.167Z,75.26
2023-05-07T02:55:11.651Z,75.19
2023-05-07T02:57:39.523Z,75.21
2023-05-07T03:00:17.228Z,75.37
2023-05-07T03:02:45.500Z,75.10
2023-05-07T03:05:13.754Z,75.15
2023-05-07T03:07:42.037Z,74.69
2023-05-07T03:10:10.841Z,75.02
2023-05-07T03:12:38.912Z,74.42
2023-05-07T03:15:07.933Z,74.10
2023-05-07T03:17:37.701Z,74.33
2023-05-07T03:20:06.716Z,74.18
2023-05-07T03:22:35.097Z,74.81
2023-05-07T03:25:02.985Z,75.31
2023-05-07T03:27:31.153Z,75.47
2023-05-07T03:29:59.417Z,76.09
2023-05-07T03:32:27.474Z,75.56
2023-05-07T03:34:57.485Z,75.75
2023-05-07T03:37:25.886Z,76.83
2023-05-07T03:39:54.306Z,77.26
2023-05-07T03:42:22.696Z,77.09
2023-05-07T03:44:50.776Z,76.65
2023-05-07T03:47:18.963Z,76.66
2023-05-07T03:49:46.903Z,76.85
2023-05-07T03:52:16.548Z,76.57
2023-05-07T03:54:44.724Z,76.93
2023-05-07T03:57:12.606Z,76.68
2023-05-07T03:59:40.892Z,76.42
2023-05-07T04:02:09.239Z,76.88
2023-05-07T04:04:37.618Z,76.27
2023-05-07T04:07:05.598Z,76.61
2023-05-07T04:09:35.389Z,76.56
2023-05-07T04:12:03.679Z,76.90
2023-05-07T04:14:33.165Z,76.97
2023-05-07T04:17:01.789Z,77.40
2023-05-07T04:19:30.135Z,77.33
2023-05-07T04:21:58.324Z,76.66
2023-05-07T04:24:26.259Z,75.99
2023-05-07T04:26:56.160Z,76.64
2023-05-07T04:29:24.408Z,76.95
2023-05-07T04:31:52.712Z,76.50
2023-05-07T04:34:22.221Z,76.37
2023-05-07T04:36:50.616Z,76.28
2023-05-07T04:39:18.943Z,76.25
2023-05-07T04:41:46.822Z,76.25
2023-05-07T04:44:16.478Z,76.72
2023-05-07T04:46:44.415Z,76.34
2023-05-07T04:49:12.488Z,76.49
2023-05-07T04:51:44.936Z,75.90
2023-05-07T04:54:13.372Z,75.85
2023-05-07T04:56:41.948Z,75.94
2023-05-07T04:59:09.878Z,75.96
2023-05-07T05:01:39.316Z,75.16
2023-05-07T05:04:07.776Z,75.23
2023-05-07T05:06:36.558Z,75.10
2023-05-07T05:09:06.210Z,74.69
2023-05-07T05:11:34.384Z,74.35
2023-05-07T05:14:03.099Z,75.29
2023-05-07T05:16:31.284Z,75.13
2023-05-07T05:19:01.042Z,75.62
2023-05-07T05:21:29.057Z,76.01
2023-05-07T05:23:57.108Z,75.50
2023-05-07T05:26:25.055Z,76.34
2023-05-07T05:28:53.029Z,76.46
2023-05-07T05:31:21.027Z,76.48
2023-05-07T05:33:49.071Z,76.86
2023-05-07T05:36:18.989Z,77.31
2023-05-07T05:38:47.181Z,77.32
2023-05-07T05:41:15.177Z,77.13
2023-05-07T05:43:43.495Z,76.94
2023-05-07T05:46:12.885Z,76.88
2023-05-07T05:48:43.256Z,76.37
2023-05-07T05:51:11.193Z,76.24
2023-05-07T05:53:40.473Z,75.91
2023-05-07T05:56:09.345Z,76.14
2023-05-07T05:58:37.277Z,75.62
2023-05-07T06:01:06.236Z,76.82
2023-05-07T06:03:34.736Z,76.19
2023-05-07T06:06:02.955Z,76.01
2023-05-07T06:08:32.625Z,75.08
2023-05-07T06:11:03.798Z,73.98
2023-05-07T06:13:32.090Z,73.83
2023-05-07T06:16:00.484Z,73.46
2023-05-07T06:18:28.481Z,73.00
2023-05-07T06:20:57.010Z,72.03
2023-05-07T06:23:24.890Z,71.30
2023-05-07T06:25:53.517Z,70.66
2023-05-07T06:28:25.119Z,70.07
2023-05-07T06:30:53.664Z,70.14
2023-05-07T06:33:22.256Z,70.45
2023-05-07T06:35:50.378Z,70.51
2023-05-07T06:38:18.501Z,69.36
2023-05-07T06:40:50.833Z,68.44
2023-05-07T06:43:18.764Z,68.00
2023-05-07T06:45:48.317Z,66.74
2023-05-07T06:48:16.251Z,66.17
2023-05-07T06:50:44.757Z,66.00
2023-05-07T06:53:12.974Z,64.02
2023-05-07T06:55:41.044Z,63.62
2023-05-07T06:58:09.008Z,63.24
2023-05-07T07:00:37.167Z,62.70
2023-05-07T07:03:06.562Z,62.64
2023-05-07T07:05:35.092Z,62.61
2023-05-07T07:08:03.492Z,62.03
2023-05-07T07:10:31.431Z,60.86
2023-05-07T07:12:59.429Z,57.76
2023-05-07T07:15:28.502Z,58.85
2023-05-07T07:17:56.693Z,58.90
2023-05-07T07:20:26.548Z,57.81
2023-05-07T07:22:54.756Z,58.05
2023-05-07T07:25:23.097Z,57.21
2023-05-07T07:27:51.652Z,56.46
2023-05-07T07:30:19.899Z,55.85
2023-05-07T07:32:47.803Z,56.07
2023-05-07T07:35:16.074Z,54.19
2023-05-07T07:37:45.660Z,54.06
2023-05-07T07:40:14.528Z,51.86
2023-05-07T07:42:42.446Z,52.07
2023-05-07T07:45:11.199Z,51.72
2023-05-07T07:47:39.277Z,51.17
2023-05-07T07:50:08.361Z,51.55
2023-05-07T07:52:36.865Z,52.57
2023-05-07T07:55:08.063Z,52.36
2023-05-07T07:57:36.342Z,52.80
2023-05-07T08:00:05.065Z,53.01
2023-05-07T08:02:33.061Z,53.19
2023-05-07T08:05:02.052Z,53.21
2023-05-07T08:07:29.905Z,53.19
2023-05-07T08:09:57.935Z,52.97
2023-05-07T08:12:27.317Z,52.89
2023-05-07T08:14:55.247Z,53.14
2023-05-07T08:17:23.506Z,53.97
2023-05-07T08:19:51.464Z,54.62
2023-05-07T08:22:20.089Z,54.45
2023-05-07T08:24:48.058Z,55.13
2023-05-07T08:27:16.385Z,55.28
2023-05-07T08:29:48.536Z,56.16
2023-05-07T08:32:16.854Z,56.16
2023-05-07T08:34:44.780Z,56.50
2023-05-07T08:37:13.067Z,56.65
2023-05-07T08:39:41.059Z,56.88
2023-05-07T08:42:11.071Z,56.86
2023-05-07T08:44:40.787Z,55.21
2023-05-07T08:47:11.329Z,55.87
2023-05-07T08:49:39.560Z,55.90
2023-05-07T08:52:09.858Z,56.10
2023-05-07T08:54:39.928Z,56.18
2023-05-07T08:57:08.165Z,55.55
2023-05-07T08:59:36.863Z,55.11
2023-05-07T09:02:06.054Z,55.71
2023-05-07T09:04:37.087Z,53.42
2023-05-07T09:07:06.603Z,52.59
2023-05-07T09:09:34.803Z,52.51
2023-05-07T09:12:05.070Z,52.23
2023-05-07T09:14:33.509Z,50.17
2023-05-07T09:17:01.719Z,50.23
2023-05-07T09:19:30.217Z,49.80
2023-05-07T09:22:03.801Z,47.52
2023-05-07T09:24:35.994Z,48.07
2023-05-07T09:27:04.761Z,46.60
2023-05-07T09:29:36.409Z,45.66
2023-05-07T09:32:06.184Z,46.25
2023-05-07T09:34:34.931Z,46.63
2023-05-07T09:37:05.059Z,44.58
2023-05-07T09:39:42.029Z,44.56
2023-05-07T09:42:10.054Z,44.12
2023-05-07T09:44:38.439Z,44.51
2023-05-07T09:47:07.987Z,43.61
2023-05-07T09:49:37.766Z,43.07
2023-05-07T09:52:11.704Z,42.38
2023-05-07T09:54:41.404Z,43.13
2023-05-07T09:57:10.699Z,41.65
2023-05-07T09:59:40.626Z,42.31
2023-05-07T10:02:12.190Z,41.00
2023-05-07T10:04:42.079Z,42.31
2023-05-07T10:07:12.108Z,42.21
2023-05-07T10:09:43.404Z,41.81
2023-05-07T10:12:11.972Z,41.35
2023-05-07T10:14:40.445Z,41.42
2023-05-07T10:17:09.178Z,41.16
2023-05-07T10:19:39.054Z,40.66
2023-05-07T10:22:08.550Z,41.25
2023-05-07T10:24:39.052Z,40.62
2023-05-07T10:27:12.703Z,40.66
2023-05-07T10:29:51.625Z,41.51
2023-05-07T10:32:35.508Z,41.48
2023-05-07T10:35:07.205Z,40.60
2023-05-07T10:37:36.177Z,41.46
2023-05-07T10:40:08.111Z,40.46
2023-05-07T10:42:36.440Z,40.66
2023-05-07T10:45:15.682Z,40.37
2023-05-07T10:48:21.019Z,40.49
2023-05-07T10:51:21.499Z,41.28
2023-05-07T10:53:49.552Z,40.28
2023-05-07T10:56:31.782Z,39.37
2023-05-07T10:59:41.875Z,39.15
2023-05-07T11:02:12.339Z,39.87
2023-05-07T11:04:42.825Z,39.61
2023-05-07T11:07:38.244Z,39.46
2023-05-07T11:10:08.871Z,38.72
2023-05-07T11:12:55.566Z,39.61
2023-05-07T11:15:46.987Z,39.69
2023-05-07T11:18:16.563Z,39.17
2023-05-07T11:21:02.504Z,38.84
2023-05-07T11:23:59.788Z,38.71
2023-05-07T11:26:29.315Z,39.27
2023-05-07T11:29:01.215Z,39.02
2023-05-07T11:31:31.111Z,39.30
2023-05-07T11:34:00.596Z,38.84
2023-05-07T11:36:33.358Z,37.88
2023-05-07T11:39:01.347Z,37.85
2023-05-07T11:41:48.021Z,37.24
2023-05-07T11:44:17.311Z,37.30
2023-05-07T11:46:46.370Z,38.02
2023-05-07T11:49:14.481Z,38.41
2023-05-07T11:51:43.209Z,38.67
2023-05-07T11:54:12.511Z,39.53
2023-05-07T11:56:40.797Z,39.68
2023-05-07T11:59:09.193Z,38.71
2023-05-07T12:01:41.041Z,39.75
2023-05-07T12:04:12.024Z,39.91
2023-05-07T12:06:40.730Z,39.43
2023-05-07T12:09:12.555Z,39.57
2023-05-07T12:11:41.832Z,40.37
2023-05-07T12:14:12.234Z,41.32
2023-05-07T12:16:42.827Z,39.73
2023-05-07T12:19:15.741Z,39.38
2023-05-07T12:21:44.384Z,40.94
2023-05-07T12:24:12.304Z,41.30
2023-05-07T12:26:41.799Z,41.58
2023-05-07T12:29:09.930Z,41.41
2023-05-07T12:31:38.082Z,41.60
2023-05-07T12:34:07.586Z,41.02
2023-05-07T12:36:44.537Z,40.93
2023-05-07T12:39:12.776Z,42.01
2023-05-07T12:41:55.587Z,42.77
2023-05-07T12:44:24.987Z,43.76
2023-05-07T12:46:53.391Z,43.72
2023-05-07T12:49:25.189Z,43.71
2023-05-07T12:51:53.530Z,43.98
2023-05-07T12:54:31.910Z,43.76
2023-05-07T12:57:04.356Z,43.78
2023-05-07T12:59:36.253Z,44.68
2023-05-07T13:02:04.476Z,45.09
2023-05-07T13:04:34.322Z,44.76
2023-05-07T13:07:02.732Z,45.05
2023-05-07T13:09:31.194Z,44.89
2023-05-07T13:12:01.082Z,46.74
2023-05-07T13:14:29.262Z,47.23
2023-05-07T13:16:57.234Z,47.51
2023-05-07T13:19:25.439Z,47.97
2023-05-07T13:21:54.749Z,48.40
2023-05-07T13:24:22.721Z,48.56
2023-05-07T13:26:51.386Z,49.73
2023-05-07T13:29:19.303Z,49.49
2023-05-07T13:31:48.390Z,50.20
2023-05-07T13:34:17.223Z,50.21
2023-05-07T13:36:45.873Z,50.17
2023-05-07T13:39:15.271Z,54.49
2023-05-07T13:41:43.995Z,53.80
2023-05-07T13:44:12.548Z,57.41
2023-05-07T13:46:40.672Z,59.07
2023-05-07T13:49:08.939Z,61.48
2023-05-07T13:51:36.965Z,61.50
2023-05-07T13:54:05.292Z,64.68
2023-05-07T13:56:34.718Z,65.34
2023-05-07T13:59:03.378Z,67.32
2023-05-07T14:01:31.469Z,68.83
2023-05-07T14:04:00.585Z,70.31
2023-05-07T14:06:28.731Z,72.54
2023-05-07T14:08:59.086Z,74.28
2023-05-07T14:11:27.186Z,74.77
2023-05-07T14:13:57.947Z,75.98
2023-05-07T14:16:26.255Z,77.54
2023-05-07T14:18:58.190Z,78.41
2023-05-07T14:21:26.621Z,78.63
2023-05-07T14:23:54.704Z,78.87
2023-05-07T14:26:23.976Z,75.04
2023-05-07T14:28:51.990Z,69.23
2023-05-07T14:31:21.729Z,70.71
2023-05-07T14:33:51.113Z,72.35
2023-05-07T14:36:20.988Z,74.28
2023-05-07T14:38:49.339Z,74.05
2023-05-07T14:41:17.620Z,72.53
2023-05-07T14:43:51.370Z,73.65
2023-05-07T14:46:21.505Z,76.29
2023-05-07T14:48:49.919Z,77.09
2023-05-07T14:51:18.196Z,76.76
2023-05-07T14:53:46.982Z,74.79
2023-05-07T14:56:15.048Z,75.25
2023-05-07T14:58:43.373Z,75.30
2023-05-07T15:01:11.664Z,76.67
2023-05-07T15:03:42.666Z,76.74
2023-05-07T15:06:10.729Z,76.79
2023-05-07T15:08:38.846Z,77.22
2023-05-07T15:11:07.122Z,76.93
2023-05-07T15:13:35.588Z,76.61
2023-05-07T15:16:03.857Z,76.94
2023-05-07T15:18:31.951Z,74.66
2023-05-07T15:21:01.446Z,76.26
2023-05-07T15:23:29.849Z,77.34
2023-05-07T15:25:57.835Z,76.95
2023-05-07T15:28:26.201Z,78.03
2023-05-07T15:30:56.211Z,78.42
2023-05-07T15:33:24.364Z,79.13
2023-05-07T15:35:52.618Z,79.24
2023-05-07T15:38:22.357Z,80.10
2023-05-07T15:40:52.309Z,80.36
2023-05-07T15:43:25.144Z,80.15
2023-05-07T15:45:58.379Z,80.14
2023-05-07T15:48:26.841Z,80.21
2023-05-07T15:50:58.972Z,80.79
2023-05-07T15:53:35.060Z,81.24
2023-05-07T15:56:13.180Z,82.41
2023-05-07T15:58:45.131Z,83.11
2023-05-07T16:01:17.490Z,83.26
2023-05-07T16:03:49.812Z,82.49
2023-05-07T16:06:18.226Z,82.17
2023-05-07T16:08:50.490Z,81.83
2023-05-07T16:11:31.130Z,81.05
2023-05-07T16:14:01.644Z,80.94
2023-05-07T16:16:33.553Z,81.58
2023-05-07T16:19:03.480Z,82.02
2023-05-07T16:21:34.769Z,82.37
2023-05-07T16:24:22.030Z,82.09
2023-05-07T16:26:55.879Z,81.33
2023-05-07T16:29:26.990Z,81.27
2023-05-07T16:32:13.183Z,82.21
2023-05-07T16:34:51.879Z,81.99
2023-05-07T16:37:23.825Z,82.37
2023-05-07T16:39:54.060Z,82.97
2023-05-07T16:42:22.394Z,82.58
2023-05-07T16:44:50.345Z,83.47
2023-05-07T16:47:19.687Z,83.43
2023-05-07T16:49:51.942Z,83.55
2023-05-07T16:52:30.704Z,83.00
2023-05-07T16:55:02.235Z,83.08
2023-05-07T16:57:33.090Z,83.17
2023-05-07T17:00:05.997Z,82.29
2023-05-07T17:02:37.069Z,82.96
2023-05-07T17:05:09.405Z,83.79
2023-05-07T17:07:40.032Z,84.16
2023-05-07T17:10:11.253Z,85.01
2023-05-07T17:12:39.663Z,85.86
2023-05-07T17:15:08.961Z,86.01
2023-05-07T17:17:37.225Z,87.28
2023-05-07T17:20:06.741Z,87.84
2023-05-07T17:22:36.381Z,87.18
2023-05-07T17:25:14.874Z,88.18
2023-05-07T17:27:46.104Z,89.01
2023-05-07T17:30:18.015Z,89.64
2023-05-07T17:32:48.299Z,88.78
2023-05-07T17:35:17.786Z,88.65
2023-05-07T17:37:52.859Z,89.47
2023-05-07T17:40:29.696Z,89.39
2023-05-07T17:43:06.640Z,89.69
2023-05-07T17:45:41.616Z,90.03
2023-05-07T17:48:12.743Z,90.52
2023-05-07T17:50:40.878Z,90.38
2023-05-07T17:53:09.918Z,90.63
2023-05-07T17:55:42.333Z,90.50
2023-05-07T17:58:11.810Z,90.81
2023-05-07T18:00:39.866Z,90.44
2023-05-07T18:03:08.362Z,90.16
2023-05-07T18:05:37.818Z,89.26
2023-05-07T18:08:06.367Z,89.27
2023-05-07T18:10:34.350Z,88.84
2023-05-07T18:13:05.220Z,88.61
2023-05-07T18:19:29.654Z,88.57
2023-05-07T18:21:58.257Z,88.60
2023-05-07T18:24:27.406Z,88.49
2023-05-07T18:27:04.073Z,88.35
2023-05-07T18:29:32.033Z,88.26
2023-05-07T18:32:01.534Z,88.19
2023-05-07T18:34:29.643Z,87.66
2023-05-07T18:37:00.823Z,87.28
2023-05-07T18:39:28.869Z,87.60
2023-05-07T18:41:58.199Z,87.06
2023-05-07T18:44:26.673Z,87.14
2023-05-07T18:46:54.653Z,87.20
2023-05-07T18:49:24.274Z,87.21
2023-05-07T18:51:53.479Z,87.72
2023-05-07T18:54:22.026Z,87.75
2023-05-07T18:56:50.789Z,87.74
2023-05-07T18:59:22.227Z,88.06
2023-05-07T19:01:51.486Z,88.12
2023-05-07T19:04:20.398Z,87.75
2023-05-07T19:06:51.864Z,87.54
2023-05-07T19:09:23.309Z,87.74
2023-05-07T19:11:52.140Z,88.59
2023-05-07T19:14:22.507Z,87.95
2023-05-07T19:16:52.621Z,88.82
2023-05-07T19:19:22.062Z,88.51
2023-05-07T19:21:54.437Z,88.87
2023-05-07T19:24:22.378Z,88.83
2023-05-07T19:26:53.689Z,88.92
2023-05-07T19:29:22.164Z,89.59
2023-05-07T19:31:51.743Z,89.21
2023-05-07T19:34:24.090Z,88.31
2023-05-07T19:36:56.321Z,89.26
2023-05-07T19:39:35.931Z,89.64
2023-05-07T19:42:06.549Z,90.04
2023-05-07T19:44:34.761Z,89.76
2023-05-07T19:47:04.133Z,90.36
2023-05-07T19:49:32.262Z,90.32
2023-05-07T19:52:02.369Z,90.42
2023-05-07T19:54:31.182Z,90.13
2023-05-07T19:56:59.216Z,90.49
2023-05-07T19:59:28.396Z,90.07
2023-05-07T20:01:57.081Z,89.39
2023-05-07T20:04:33.232Z,90.16
2023-05-07T20:07:07.937Z,89.77
2023-05-07T20:09:36.179Z,89.63
2023-05-07T20:12:06.851Z,90.41
2023-05-07T20:14:35.216Z,90.17
2023-05-07T20:17:05.104Z,90.51
2023-05-07T20:19:33.491Z,91.25
2023-05-07T20:22:03.354Z,90.41
2023-05-07T20:24:32.159Z,89.81
2023-05-07T20:27:02.145Z,90.76
2023-05-07T20:29:32.801Z,90.39
2023-05-07T20:32:01.138Z,90.90
2023-05-07T20:34:29.865Z,90.63
2023-05-07T20:37:02.112Z,90.73
2023-05-07T20:39:33.706Z,91.17
2023-05-07T20:42:02.352Z,90.56
2023-05-07T20:44:34.042Z,91.31
2023-05-07T20:47:02.200Z,92.07
2023-05-07T20:49:30.300Z,92.94
2023-05-07T20:51:58.553Z,93.04
2023-05-07T20:54:28.304Z,93.13
2023-05-07T20:56:58.499Z,93.07
2023-05-07T20:59:27.101Z,92.96
2023-05-07T21:01:56.763Z,92.34
2023-05-07T21:04:27.307Z,92.14
2023-05-07T21:06:55.683Z,92.54
2023-05-07T21:09:24.272Z,92.47
2023-05-07T21:11:52.564Z,92.93
2023-05-07T21:14:22.036Z,92.68
2023-05-07T21:16:50.015Z,91.98
2023-05-07T21:19:18.111Z,91.63
2023-05-07T21:21:46.169Z,92.13
2023-05-07T21:24:14.215Z,92.38
2023-05-07T21:26:42.230Z,91.87
2023-05-07T21:29:10.706Z,91.59
2023-05-07T21:31:40.174Z,91.89
2023-05-07T21:34:08.819Z,92.58
2023-05-07T21:36:36.857Z,92.59
2023-05-07T21:39:05.038Z,93.00
2023-05-07T21:41:33.516Z,92.88
2023-05-07T21:44:01.732Z,93.08
2023-05-07T21:46:29.828Z,93.48
2023-05-07T21:48:59.331Z,93.60
2023-05-07T21:51:29.953Z,93.77
2023-05-07T21:53:57.873Z,93.84
2023-05-07T21:56:25.925Z,93.92
2023-05-07T21:58:53.893Z,93.58
2023-05-07T22:01:22.043Z,93.18
2023-05-07T22:03:50.302Z,93.02
2023-05-07T22:06:21.978Z,92.58
2023-05-07T22:08:50.378Z,92.62
2023-05-07T22:11:18.722Z,92.65
2023-05-07T22:13:47.039Z,92.80
2023-05-07T22:16:15.870Z,93.18
2023-05-07T22:18:44.670Z,93.37
2023-05-07T22:21:12.825Z,93.15
2023-05-07T22:23:42.759Z,92.18
2023-05-07T22:26:15.112Z,92.49
2023-05-07T22:28:45.703Z,92.76
2023-05-07T22:31:14.019Z,92.87
2023-05-07T22:33:42.565Z,92.68
2023-05-07T22:36:10.658Z,93.19
2023-05-07T22:38:38.611Z,92.76
2023-05-07T22:41:08.030Z,92.83
2023-05-07T22:43:36.077Z,92.09
2023-05-07T22:46:04.261Z,91.44
2023-05-07T22:48:33.616Z,91.18
2023-05-07T22:51:01.768Z,91.94
2023-05-07T22:53:29.829Z,92.03
2023-05-07T22:55:57.999Z,91.92
2023-05-07T22:58:27.495Z,92.00
2023-05-07T23:00:55.943Z,91.67
2023-05-07T23:03:24.260Z,92.26
2023-05-07T23:05:53.978Z,91.51
2023-05-07T23:08:25.163Z,91.84
2023-05-07T23:10:53.190Z,92.50
2023-05-07T23:13:21.602Z,92.53
2023-05-07T23:15:51.833Z,93.23
2023-05-07T23:18:20.363Z,93.25
2023-05-07T23:20:48.575Z,92.94
2023-05-07T23:23:17.111Z,93.17
2023-05-07T23:25:47.099Z,93.55
2023-05-07T23:28:15.260Z,93.56
2023-05-07T23:30:45.274Z,93.37
2023-05-07T23:33:14.880Z,92.81
2023-05-07T23:35:42.914Z,93.51
2023-05-07T23:38:10.980Z,93.40
2023-05-07T23:40:39.100Z,93.01
2023-05-07T23:43:07.130Z,92.79
2023-05-07T23:45:35.232Z,92.79
2023-05-07T23:48:03.714Z,92.93
2023-05-07T23:50:33.189Z,92.98
2023-05-07T23:53:01.355Z,93.05
2023-05-07T23:55:29.486Z,93.31
2023-05-07T23:57:57.562Z,93.33
